createdAt,value
2022-12-03T00:02:04.699Z,16.65
2022-12-03T00:04:31.999Z,16.48
2022-12-03T00:06:59.013Z,16.15
2022-12-03T00:09:26.005Z,17.83
2022-12-03T00:11:53.698Z,16.17
2022-12-03T00:14:20.659Z,18.20
2022-12-03T00:16:47.711Z,16.90
2022-12-03T00:19:15.033Z,16.73
2022-12-03T00:21:42.016Z,16.98
2022-12-03T00:24:09.052Z,17.33
2022-12-03T00:26:36.339Z,19.15
2022-12-03T00:29:03.692Z,15.13
2022-12-03T00:31:30.748Z,16.45
2022-12-03T00:33:58.307Z,15.73
2022-12-03T00:36:25.285Z,16.17
2022-12-03T00:38:54.136Z,16.37
2022-12-03T00:41:21.611Z,16.33
2022-12-03T00:43:48.591Z,16.40
2022-12-03T00:46:20.918Z,17.15
2022-12-03T00:48:48.714Z,17.12
2022-12-03T00:51:15.709Z,16.00
2022-12-03T00:53:42.699Z,16.90
2022-12-03T00:56:10.575Z,17.85
2022-12-03T00:58:37.562Z,16.83
2022-12-03T01:01:04.656Z,17.60
2022-12-03T01:03:31.936Z,18.75
2022-12-03T01:05:58.937Z,17.20
2022-12-03T01:08:25.949Z,16.95
2022-12-03T01:10:53.274Z,16.95
2022-12-03T01:13:20.284Z,16.17
2022-12-03T01:15:47.294Z,16.37
2022-12-03T01:18:14.618Z,16.23
2022-12-03T01:20:41.659Z,16.83
2022-12-03T01:23:08.615Z,16.92
2022-12-03T01:25:35.925Z,16.98
2022-12-03T01:28:02.973Z,16.35
2022-12-03T01:30:49.986Z,16.70
2022-12-03T01:33:17.359Z,18.08
2022-12-03T01:35:44.402Z,16.62
2022-12-03T01:38:11.356Z,18.27
2022-12-03T01:40:38.720Z,18.25
2022-12-03T01:43:08.348Z,18.20
2022-12-03T01:45:35.436Z,17.37
2022-12-03T01:48:02.743Z,18.95
2022-12-03T01:50:31.905Z,17.17
2022-12-03T01:53:00.829Z,17.30
2022-12-03T01:55:28.510Z,16.25
2022-12-03T01:57:57.835Z,16.58
2022-12-03T02:00:29.653Z,18.12
2022-12-03T02:03:00.991Z,16.92
2022-12-03T02:05:31.248Z,16.40
2022-12-03T02:07:59.763Z,16.83
2022-12-03T02:10:32.444Z,17.12
2022-12-03T02:13:02.286Z,16.37
2022-12-03T02:15:29.587Z,18.37
2022-12-03T02:17:57.004Z,16.85
2022-12-03T02:20:24.319Z,16.85
2022-12-03T02:22:54.272Z,17.62
2022-12-03T02:25:23.934Z,17.40
2022-12-03T02:27:53.616Z,18.37
2022-12-03T02:30:22.769Z,16.40
2022-12-03T02:32:51.068Z,17.08
2022-12-03T02:35:20.860Z,17.02
2022-12-03T02:37:51.820Z,18.02
2022-12-03T02:40:24.333Z,16.98
2022-12-03T02:42:55.972Z,16.67
2022-12-03T02:45:36.315Z,17.67
2022-12-03T02:48:24.411Z,18.00
2022-12-03T02:50:54.104Z,19.00
2022-12-03T02:53:35.547Z,18.83
2022-12-03T02:56:03.737Z,17.33
2022-12-03T02:58:32.894Z,19.05
2022-12-03T03:01:01.751Z,19.37
2022-12-03T03:03:29.553Z,18.35
2022-12-03T03:05:57.066Z,17.48
2022-12-03T03:08:24.680Z,18.20
2022-12-03T03:10:52.134Z,16.50
2022-12-03T03:13:21.232Z,18.27
2022-12-03T03:15:48.419Z,17.55
2022-12-03T03:18:16.192Z,17.85
2022-12-03T03:20:43.801Z,18.40
2022-12-03T03:23:10.692Z,19.08
2022-12-03T03:25:39.479Z,17.42
2022-12-03T03:28:07.544Z,16.67
2022-12-03T03:30:35.501Z,19.55
2022-12-03T03:33:02.933Z,18.02
2022-12-03T03:35:30.050Z,18.30
2022-12-03T03:37:58.663Z,18.48
2022-12-03T03:40:26.343Z,17.02
2022-12-03T03:42:56.056Z,17.92
2022-12-03T03:45:28.882Z,18.87
2022-12-03T03:47:58.229Z,18.35
2022-12-03T03:50:26.743Z,16.37
2022-12-03T03:52:54.504Z,18.33
2022-12-03T03:55:21.836Z,18.55
2022-12-03T03:57:49.247Z,18.60
2022-12-03T04:00:17.013Z,18.40
2022-12-03T04:02:44.813Z,16.80
2022-12-03T04:05:18.912Z,16.25
2022-12-03T04:07:46.648Z,18.90
2022-12-03T04:10:33.491Z,17.87
2022-12-03T04:13:01.636Z,19.00
2022-12-03T04:15:28.774Z,17.50
2022-12-03T04:18:14.603Z,18.55
2022-12-03T04:20:41.879Z,17.62
2022-12-03T04:23:09.135Z,15.32
2022-12-03T04:25:55.180Z,19.98
2022-12-03T04:28:41.049Z,17.98
2022-12-03T04:31:26.950Z,17.50
2022-12-03T04:34:12.879Z,17.02
2022-12-03T04:36:39.912Z,18.48
2022-12-03T04:39:07.213Z,16.90
2022-12-03T04:41:34.198Z,19.33
2022-12-03T04:44:20.157Z,16.62
2022-12-03T04:46:47.453Z,18.85
2022-12-03T04:49:14.427Z,18.42
2022-12-03T04:51:41.429Z,18.33
2022-12-03T04:54:08.729Z,18.50
2022-12-03T04:56:35.717Z,19.25
2022-12-03T04:59:02.724Z,18.60
2022-12-03T05:01:30.118Z,18.52
2022-12-03T05:03:57.172Z,18.77
2022-12-03T05:06:24.204Z,21.20
2022-12-03T05:08:51.526Z,19.65
2022-12-03T05:11:18.530Z,18.67
2022-12-03T05:13:45.556Z,20.23
2022-12-03T05:16:12.895Z,17.92
2022-12-03T05:18:39.910Z,19.83
2022-12-03T05:21:06.886Z,19.15
2022-12-03T05:23:34.175Z,17.50
2022-12-03T05:26:01.171Z,19.85
2022-12-03T05:28:28.162Z,20.37
2022-12-03T05:30:55.580Z,17.98
2022-12-03T05:33:22.852Z,18.23
2022-12-03T05:35:49.835Z,17.30
2022-12-03T05:38:17.141Z,19.98
2022-12-03T05:40:44.629Z,20.52
2022-12-03T05:43:11.623Z,19.80
2022-12-03T05:45:40.828Z,20.50
2022-12-03T05:48:10.757Z,20.00
2022-12-03T05:50:39.333Z,21.25
2022-12-03T05:53:14.224Z,17.60
2022-12-03T05:55:41.574Z,18.30
2022-12-03T05:58:08.861Z,19.77
2022-12-03T06:00:42.321Z,17.60
2022-12-03T06:03:10.850Z,21.08
2022-12-03T06:05:38.067Z,19.80
2022-12-03T06:08:05.314Z,19.50
2022-12-03T06:10:32.648Z,18.87
2022-12-03T06:12:59.711Z,20.80
2022-12-03T06:15:26.730Z,16.95
2022-12-03T06:17:54.101Z,17.67
2022-12-03T06:20:21.487Z,19.70
2022-12-03T06:22:48.852Z,17.80
2022-12-03T06:25:16.745Z,21.33
2022-12-03T06:27:44.599Z,19.92
2022-12-03T06:30:12.810Z,18.62
2022-12-03T06:32:40.309Z,15.38
2022-12-03T06:35:07.638Z,16.20
2022-12-03T06:37:34.652Z,19.77
2022-12-03T06:40:02.076Z,18.17
2022-12-03T06:42:29.068Z,19.73
2022-12-03T06:44:56.345Z,18.05
2022-12-03T06:47:23.947Z,18.12
2022-12-03T06:49:50.929Z,19.20
2022-12-03T06:52:17.984Z,18.92
2022-12-03T06:54:45.300Z,17.50
2022-12-03T06:57:12.264Z,18.30
2022-12-03T06:59:39.428Z,18.83
2022-12-03T07:02:06.877Z,19.25
2022-12-03T07:04:33.938Z,18.35
2022-12-03T07:07:00.977Z,18.05
2022-12-03T07:09:28.271Z,17.15
2022-12-03T07:11:55.292Z,17.83
2022-12-03T07:14:22.307Z,16.98
2022-12-03T07:16:50.025Z,16.65
2022-12-03T07:19:17.180Z,16.10
2022-12-03T07:21:44.153Z,19.27
2022-12-03T07:24:11.524Z,17.12
2022-12-03T07:26:38.734Z,17.52
2022-12-03T07:29:05.927Z,17.48
2022-12-03T07:31:33.324Z,17.35
2022-12-03T07:34:00.965Z,18.35
2022-12-03T07:36:27.966Z,18.15
2022-12-03T07:38:57.950Z,17.87
2022-12-03T07:41:24.990Z,18.25
2022-12-03T07:43:52.003Z,19.60
2022-12-03T07:46:19.307Z,17.35
2022-12-03T07:48:46.329Z,18.33
2022-12-03T07:51:15.521Z,19.33
2022-12-03T07:53:43.069Z,20.55
2022-12-03T07:56:10.140Z,17.75
2022-12-03T07:58:37.146Z,20.95
2022-12-03T08:01:04.534Z,19.75
2022-12-03T08:03:31.935Z,18.35
2022-12-03T08:05:58.920Z,17.27
2022-12-03T08:08:25.921Z,18.95
2022-12-03T08:10:53.232Z,18.10
2022-12-03T08:13:20.195Z,19.80
2022-12-03T08:15:47.388Z,19.75
2022-12-03T08:18:17.873Z,20.40
2022-12-03T08:20:46.242Z,21.58
2022-12-03T08:23:16.431Z,16.95
2022-12-03T08:25:44.683Z,18.33
2022-12-03T08:28:19.220Z,19.00
2022-12-03T08:31:12.406Z,20.25
2022-12-03T08:33:40.614Z,18.10
2022-12-03T08:36:31.533Z,17.85
2022-12-03T08:39:07.005Z,18.95
2022-12-03T08:41:54.982Z,20.88
2022-12-03T08:44:29.870Z,21.70
2022-12-03T08:47:07.224Z,20.00
2022-12-03T08:49:34.332Z,19.20
2022-12-03T08:52:02.110Z,19.52
2022-12-03T08:54:29.266Z,19.50
2022-12-03T08:56:56.314Z,23.25
2022-12-03T08:59:29.891Z,22.40
2022-12-03T09:01:58.576Z,21.15
2022-12-03T09:04:46.720Z,19.58
2022-12-03T09:07:13.713Z,21.77
2022-12-03T09:09:41.067Z,21.90
2022-12-03T09:12:08.099Z,22.10
2022-12-03T09:14:35.131Z,20.75
2022-12-03T09:17:02.521Z,23.12
2022-12-03T09:19:32.097Z,22.40
2022-12-03T09:21:59.106Z,23.00
2022-12-03T09:24:26.364Z,21.87
2022-12-03T09:26:53.344Z,22.48
2022-12-03T09:29:20.318Z,21.37
2022-12-03T09:31:47.746Z,20.60
2022-12-03T09:34:14.922Z,18.42
2022-12-03T09:36:41.930Z,22.90
2022-12-03T09:39:09.194Z,22.15
2022-12-03T09:41:36.281Z,20.77
2022-12-03T09:44:04.804Z,21.08
2022-12-03T09:46:34.538Z,22.13
2022-12-03T09:49:02.389Z,19.55
2022-12-03T09:51:32.324Z,19.65
2022-12-03T09:54:00.930Z,16.98
2022-12-03T09:56:28.000Z,19.48
2022-12-03T09:58:55.236Z,18.62
2022-12-03T10:01:24.973Z,20.00
2022-12-03T10:03:54.303Z,19.58
2022-12-03T10:06:23.395Z,20.40
2022-12-03T10:08:53.064Z,19.37
2022-12-03T10:11:21.937Z,20.25
2022-12-03T10:13:52.604Z,21.83
2022-12-03T10:16:20.989Z,20.02
2022-12-03T10:18:50.267Z,18.30
2022-12-03T10:21:22.433Z,19.67
2022-12-03T10:23:55.137Z,21.52
2022-12-03T10:26:37.879Z,19.35
2022-12-03T10:29:13.054Z,16.17
2022-12-03T10:31:40.572Z,18.27
2022-12-03T10:34:09.245Z,20.77
2022-12-03T10:36:36.500Z,19.60
2022-12-03T10:39:08.448Z,20.45
2022-12-03T10:41:37.791Z,17.85
2022-12-03T10:44:18.700Z,21.40
2022-12-03T10:46:47.165Z,19.42
2022-12-03T10:49:18.847Z,18.25
2022-12-03T10:51:47.242Z,18.15
2022-12-03T10:54:25.300Z,18.02
2022-12-03T10:56:53.076Z,18.40
2022-12-03T10:59:22.531Z,18.80
2022-12-03T11:01:50.446Z,20.20
2022-12-03T11:04:35.653Z,17.75
2022-12-03T11:07:03.737Z,18.15
2022-12-03T11:09:32.868Z,19.00
2022-12-03T11:12:05.054Z,19.27
2022-12-03T11:14:51.484Z,18.45
2022-12-03T11:17:43.814Z,18.67
2022-12-03T11:20:22.827Z,19.98
2022-12-03T11:22:59.677Z,18.65
2022-12-03T11:25:26.976Z,16.30
2022-12-03T11:28:11.937Z,19.77
2022-12-03T11:30:51.461Z,15.73
2022-12-03T11:33:32.849Z,14.23
2022-12-03T11:36:02.852Z,14.50
2022-12-03T11:38:41.046Z,14.52
2022-12-03T11:41:33.859Z,15.75
2022-12-03T11:44:04.669Z,14.35
2022-12-03T11:46:39.652Z,14.27
2022-12-03T11:49:35.856Z,14.85
2022-12-03T11:52:18.779Z,16.23
2022-12-03T11:54:50.278Z,14.05
2022-12-03T11:57:33.767Z,15.90
2022-12-03T12:00:07.180Z,17.33
2022-12-03T12:02:38.975Z,13.62
2022-12-03T12:05:19.846Z,16.95
2022-12-03T12:07:48.248Z,15.48
2022-12-03T12:10:42.807Z,14.30
2022-12-03T12:13:30.574Z,13.57
2022-12-03T12:15:59.304Z,15.02
2022-12-03T12:18:55.733Z,15.02
2022-12-03T12:21:48.422Z,13.93
2022-12-03T12:24:35.929Z,15.13
2022-12-03T12:27:07.129Z,13.80
2022-12-03T12:29:38.672Z,12.45
2022-12-03T12:32:08.991Z,11.48
2022-12-03T12:35:14.534Z,12.77
2022-12-03T12:37:54.859Z,13.70
2022-12-03T12:40:30.391Z,13.13
2022-12-03T12:43:11.799Z,14.45
2022-12-03T12:45:42.024Z,14.10
2022-12-03T12:48:14.932Z,13.15
2022-12-03T12:50:43.605Z,13.02
2022-12-03T12:53:10.766Z,14.27
2022-12-03T12:55:41.229Z,13.10
2022-12-03T12:58:19.475Z,12.37
2022-12-03T13:00:51.123Z,17.87
2022-12-03T13:03:21.075Z,15.98
2022-12-03T13:05:49.802Z,14.20
2022-12-03T13:08:30.274Z,13.23
2022-12-03T13:11:01.713Z,13.10
2022-12-03T13:13:43.348Z,13.32
2022-12-03T13:16:17.258Z,13.32
2022-12-03T13:18:48.016Z,13.57
2022-12-03T13:21:27.182Z,13.00
2022-12-03T13:23:56.239Z,14.27
2022-12-03T13:26:39.327Z,14.43
2022-12-03T13:29:12.796Z,13.90
2022-12-03T13:31:44.224Z,14.57
2022-12-03T13:34:16.740Z,14.13
2022-12-03T13:36:45.024Z,13.23
2022-12-03T13:39:36.668Z,14.32
2022-12-03T13:42:48.053Z,12.93
2022-12-03T13:45:15.076Z,14.70
2022-12-03T13:48:14.942Z,14.98
2022-12-03T13:50:45.055Z,15.23
2022-12-03T13:53:33.118Z,12.40
2022-12-03T13:56:22.553Z,14.20
2022-12-03T13:58:49.853Z,15.45
2022-12-03T14:01:16.957Z,14.85
2022-12-03T14:03:44.330Z,12.25
2022-12-03T14:06:11.325Z,11.95
2022-12-03T14:08:38.422Z,14.85
2022-12-03T14:11:05.872Z,14.63
2022-12-03T14:13:33.037Z,13.35
2022-12-03T14:16:00.195Z,12.82
2022-12-03T14:18:27.557Z,14.48
2022-12-03T14:20:54.537Z,13.82
2022-12-03T14:23:21.576Z,14.23
2022-12-03T14:25:48.877Z,14.57
2022-12-03T14:28:15.898Z,13.27
2022-12-03T14:30:42.907Z,14.70
2022-12-03T14:33:10.262Z,14.52
2022-12-03T14:35:37.244Z,14.50
2022-12-03T14:38:04.295Z,15.25
2022-12-03T14:40:31.653Z,13.98
2022-12-03T14:42:58.652Z,15.07
2022-12-03T14:45:27.614Z,13.30
2022-12-03T14:47:57.636Z,12.77
2022-12-03T14:50:25.826Z,13.15
2022-12-03T14:52:52.876Z,12.90
2022-12-03T14:55:20.148Z,12.95
2022-12-03T14:57:47.207Z,15.60
2022-12-03T15:00:14.726Z,16.70
2022-12-03T15:02:42.174Z,15.85
2022-12-03T15:05:09.524Z,14.60
2022-12-03T15:07:38.624Z,14.70
2022-12-03T15:10:07.541Z,13.48
2022-12-03T15:12:34.683Z,14.00
2022-12-03T15:15:01.691Z,15.35
2022-12-03T15:17:31.934Z,15.48
2022-12-03T15:19:59.266Z,13.13
2022-12-03T15:22:26.278Z,13.82
2022-12-03T15:24:53.559Z,13.43
2022-12-03T15:27:20.576Z,14.63
2022-12-03T15:29:47.603Z,15.65
2022-12-03T15:32:15.346Z,14.43
2022-12-03T15:34:42.397Z,15.68
2022-12-03T15:37:09.431Z,14.20
2022-12-03T15:39:52.399Z,14.77
2022-12-03T15:42:19.432Z,13.73
2022-12-03T15:44:46.738Z,16.10
2022-12-03T15:47:13.723Z,15.70
2022-12-03T15:49:40.753Z,15.05
2022-12-03T15:52:08.133Z,14.00
2022-12-03T15:54:35.305Z,15.15
2022-12-03T15:57:02.289Z,13.75
2022-12-03T15:59:29.607Z,13.57
2022-12-03T16:01:56.708Z,14.80
2022-12-03T16:04:24.087Z,13.48
2022-12-03T16:06:51.156Z,13.75
2022-12-03T16:09:22.295Z,15.07
2022-12-03T16:11:52.763Z,15.00
2022-12-03T16:14:20.411Z,15.23
2022-12-03T16:16:47.625Z,15.38
2022-12-03T16:19:14.943Z,15.25
2022-12-03T16:21:41.913Z,13.93
2022-12-03T16:24:08.923Z,13.10
2022-12-03T16:26:36.240Z,13.60
2022-12-03T16:29:03.369Z,13.85
2022-12-03T16:31:30.453Z,13.35
2022-12-03T16:33:57.871Z,14.32
2022-12-03T16:36:24.888Z,14.10
2022-12-03T16:38:51.871Z,13.98
2022-12-03T16:41:19.269Z,14.57
2022-12-03T16:43:48.452Z,13.60
2022-12-03T16:46:18.271Z,14.85
2022-12-03T16:48:46.981Z,13.15
2022-12-03T16:51:14.013Z,13.95
2022-12-03T16:53:41.045Z,13.57
2022-12-03T16:56:08.727Z,14.30
2022-12-03T16:58:35.730Z,13.65
2022-12-03T17:01:02.848Z,14.13
2022-12-03T17:03:33.863Z,12.60
2022-12-03T17:06:01.860Z,13.55
2022-12-03T17:08:29.367Z,16.42
2022-12-03T17:10:56.876Z,13.73
2022-12-03T17:13:24.176Z,16.80
2022-12-03T17:15:51.472Z,14.85
2022-12-03T17:18:18.872Z,16.37
2022-12-03T17:20:46.125Z,15.98
2022-12-03T17:23:13.104Z,14.45
2022-12-03T17:25:40.396Z,14.27
2022-12-03T17:28:07.386Z,15.35
2022-12-03T17:30:34.367Z,18.08
2022-12-03T17:33:01.662Z,13.80
2022-12-03T17:35:28.776Z,16.37
2022-12-03T17:37:55.824Z,18.80
2022-12-03T17:40:23.195Z,18.83
2022-12-03T17:42:50.182Z,17.15
2022-12-03T17:45:17.326Z,15.25
2022-12-03T17:47:44.688Z,18.08
2022-12-03T17:50:11.975Z,18.55
2022-12-03T17:52:39.019Z,20.50
2022-12-03T17:55:15.783Z,16.95
2022-12-03T17:57:48.480Z,17.90
2022-12-03T18:00:15.985Z,16.15
2022-12-03T18:02:43.269Z,16.52
2022-12-03T18:05:10.583Z,18.08
2022-12-03T18:07:37.584Z,18.27
2022-12-03T18:10:05.523Z,17.15
2022-12-03T18:12:32.560Z,16.73
2022-12-03T18:14:59.566Z,16.05
2022-12-03T18:17:26.857Z,18.05
2022-12-03T18:19:54.178Z,18.37
2022-12-03T18:22:21.411Z,17.17
2022-12-03T18:24:51.978Z,17.62
2022-12-03T18:27:23.128Z,18.37
2022-12-03T18:29:50.496Z,20.08
2022-12-03T18:32:28.259Z,20.73
2022-12-03T18:34:57.083Z,17.12
2022-12-03T18:37:26.963Z,23.48
2022-12-03T18:39:54.431Z,24.48
2022-12-03T18:42:23.156Z,27.70
2022-12-03T18:44:52.031Z,24.35
2022-12-03T18:47:21.457Z,24.65
2022-12-03T18:49:48.820Z,21.52
2022-12-03T18:52:18.696Z,22.30
2022-12-03T18:54:46.366Z,20.70
2022-12-03T18:57:13.711Z,22.15
2022-12-03T18:59:40.816Z,18.60
2022-12-03T19:02:08.290Z,21.48
2022-12-03T19:04:35.674Z,21.75
2022-12-03T19:07:03.763Z,19.52
2022-12-03T19:09:30.868Z,21.15
2022-12-03T19:11:58.208Z,22.60
2022-12-03T19:14:25.285Z,21.05
2022-12-03T19:16:52.481Z,22.00
2022-12-03T19:19:19.807Z,20.52
2022-12-03T19:21:46.855Z,20.17
2022-12-03T19:24:24.245Z,19.10
2022-12-03T19:26:54.714Z,20.67
2022-12-03T19:29:24.842Z,20.30
2022-12-03T19:31:52.351Z,19.70
2022-12-03T19:34:19.908Z,18.83
2022-12-03T19:36:47.534Z,22.25
2022-12-03T19:39:14.584Z,19.37
2022-12-03T19:41:43.692Z,19.62
2022-12-03T19:44:13.282Z,18.25
2022-12-03T19:46:40.841Z,19.92
2022-12-03T19:49:08.530Z,21.77
2022-12-03T19:51:36.114Z,22.80
2022-12-03T19:54:05.172Z,21.08
2022-12-03T19:56:32.840Z,18.70
2022-12-03T19:59:00.009Z,22.92
2022-12-03T20:01:29.458Z,20.75
2022-12-03T20:03:58.959Z,20.02
2022-12-03T20:06:28.282Z,21.55
2022-12-03T20:08:59.800Z,22.23
2022-12-03T20:11:29.614Z,20.40
2022-12-03T20:13:58.739Z,20.77
2022-12-03T20:16:26.511Z,18.15
2022-12-03T20:18:58.998Z,19.62
2022-12-03T20:21:27.057Z,21.02
2022-12-03T20:23:54.377Z,20.12
2022-12-03T20:26:22.611Z,20.17
2022-12-03T20:28:50.145Z,22.60
2022-12-03T20:31:20.069Z,20.00
2022-12-03T20:33:49.561Z,17.62
2022-12-03T20:36:18.893Z,20.58
2022-12-03T20:38:46.388Z,20.83
2022-12-03T20:41:18.655Z,20.17
2022-12-03T20:43:45.885Z,20.08
2022-12-03T20:46:16.393Z,21.37
2022-12-03T20:48:44.140Z,20.58
2022-12-03T20:51:14.044Z,22.58
2022-12-03T20:53:41.897Z,19.83
2022-12-03T20:56:09.243Z,21.23
2022-12-03T20:58:36.741Z,21.40
2022-12-03T21:01:16.208Z,20.20
2022-12-03T21:03:44.397Z,21.92
2022-12-03T21:06:12.604Z,21.85
2022-12-03T21:08:41.982Z,19.50
2022-12-03T21:11:20.950Z,21.83
2022-12-03T21:13:48.339Z,22.67
2022-12-03T21:16:18.267Z,22.40
2022-12-03T21:18:45.937Z,22.02
2022-12-03T21:21:15.159Z,20.23
2022-12-03T21:23:42.705Z,22.13
2022-12-03T21:26:11.953Z,23.75
2022-12-03T21:28:40.554Z,21.48
2022-12-03T21:31:10.829Z,22.17
2022-12-03T21:33:38.404Z,23.87
2022-12-03T21:36:06.387Z,22.85
2022-12-03T21:38:34.422Z,21.70
2022-12-03T21:41:02.161Z,23.42
2022-12-03T21:43:29.917Z,23.35
2022-12-03T21:45:56.944Z,21.20
2022-12-03T21:48:24.334Z,20.85
2022-12-03T21:51:03.637Z,22.70
2022-12-03T21:53:32.163Z,22.95
2022-12-03T21:55:59.824Z,22.70
2022-12-03T21:58:26.845Z,22.00
2022-12-03T22:00:53.929Z,21.52
2022-12-03T22:03:21.375Z,22.25
2022-12-03T22:05:49.718Z,20.50
2022-12-03T22:08:17.008Z,20.88
2022-12-03T22:10:44.417Z,21.95
2022-12-03T22:13:11.413Z,22.65
2022-12-03T22:15:39.963Z,22.02
2022-12-03T22:18:07.414Z,23.33
2022-12-03T22:20:34.400Z,21.17
2022-12-03T22:23:01.429Z,21.02
2022-12-03T22:25:30.440Z,21.08
2022-12-03T22:27:57.443Z,22.30
2022-12-03T22:30:24.563Z,21.17
2022-12-03T22:32:51.869Z,21.00
2022-12-03T22:35:18.870Z,22.27
2022-12-03T22:37:45.845Z,21.58
2022-12-03T22:40:13.392Z,20.75
2022-12-03T22:42:40.525Z,23.23
2022-12-03T22:45:07.789Z,20.35
2022-12-03T22:47:35.106Z,22.23
2022-12-03T22:50:02.140Z,20.12
2022-12-03T22:52:30.060Z,19.52
2022-12-03T22:54:57.469Z,22.92
2022-12-03T22:57:24.446Z,21.33
2022-12-03T22:59:51.494Z,19.48
2022-12-03T23:02:18.974Z,18.65
2022-12-03T23:04:45.965Z,20.90
2022-12-03T23:07:13.057Z,20.25
2022-12-03T23:09:40.386Z,20.48
2022-12-03T23:12:07.548Z,21.60
2022-12-03T23:14:34.588Z,20.50
2022-12-03T23:17:01.853Z,22.25
2022-12-03T23:19:29.067Z,21.92
2022-12-03T23:21:56.073Z,21.67
2022-12-03T23:24:23.383Z,22.85
2022-12-03T23:26:50.365Z,21.02
2022-12-03T23:29:17.346Z,20.20
2022-12-03T23:31:44.700Z,19.12
2022-12-03T23:34:11.751Z,19.48
2022-12-03T23:36:38.768Z,20.62
2022-12-03T23:39:06.075Z,21.52
2022-12-03T23:41:33.126Z,20.42
2022-12-03T23:44:00.141Z,21.55
2022-12-03T23:46:28.387Z,21.25
2022-12-03T23:48:55.564Z,21.60
2022-12-03T23:51:24.403Z,22.33
2022-12-03T23:53:53.115Z,22.45
2022-12-03T23:56:23.809Z,19.70
2022-12-03T23:58:51.386Z,18.62
